sensor_id;sensor_type;location;lat;lon;timestamp;temperature;humidity
25188;DHT22;13141;50.414;8.050;2023-07-31T00:00:05;18.80;99.90
25188;DHT22;13141;50.414;8.050;2023-07-31T00:02:31;18.80;99.90
25188;DHT22;13141;50.414;8.050;2023-07-31T00:04:56;18.90;99.90
25188;DHT22;13141;50.414;8.050;2023-07-31T00:07:23;18.90;99.90
25188;DHT22;13141;50.414;8.050;2023-07-31T00:09:49;18.90;99.90
25188;DHT22;13141;50.414;8.050;2023-07-31T00:12:15;18.90;99.90
25188;DHT22;13141;50.414;8.050;2023-07-31T00:14:40;18.90;99.90
25188;DHT22;13141;50.414;8.050;2023-07-31T00:17:06;18.90;99.90
25188;DHT22;13141;50.414;8.050;2023-07-31T00:19:31;19.00;99.90
25188;DHT22;13141;50.414;8.050;2023-07-31T00:21:57;19.00;99.90
25188;DHT22;13141;50.414;8.050;2023-07-31T00:24:25;19.00;99.90
25188;DHT22;13141;50.414;8.050;2023-07-31T00:26:50;19.10;99.90
25188;DHT22;13141;50.414;8.050;2023-07-31T00:29:16;19.10;99.90
25188;DHT22;13141;50.414;8.050;2023-07-31T00:31:42;19.10;99.90
25188;DHT22;13141;50.414;8.050;2023-07-31T00:34:08;19.10;99.90
25188;DHT22;13141;50.414;8.050;2023-07-31T00:36:34;19.10;99.90
25188;DHT22;13141;50.414;8.050;2023-07-31T00:39:00;19.10;99.90
25188;DHT22;13141;50.414;8.050;2023-07-31T00:41:27;19.20;99.90
25188;DHT22;13141;50.414;8.050;2023-07-31T00:43:54;19.10;99.90
25188;DHT22;13141;50.414;8.050;2023-07-31T00:46:21;19.00;99.90
25188;DHT22;13141;50.414;8.050;2023-07-31T00:48:47;19.10;99.90
25188;DHT22;13141;50.414;8.050;2023-07-31T00:51:13;19.00;99.90
25188;DHT22;13141;50.414;8.050;2023-07-31T00:53:40;19.00;99.90
25188;DHT22;13141;50.414;8.050;2023-07-31T00:56:06;19.00;99.90
25188;DHT22;13141;50.414;8.050;2023-07-31T00:58:33;19.00;99.90
25188;DHT22;13141;50.414;8.050;2023-07-31T01:01:00;19.00;99.90
25188;DHT22;13141;50.414;8.050;2023-07-31T01:03:27;19.10;99.90
25188;DHT22;13141;50.414;8.050;2023-07-31T01:06:01;19.10;99.90
25188;DHT22;13141;50.414;8.050;2023-07-31T01:08:36;19.10;99.90
25188;DHT22;13141;50.414;8.050;2023-07-31T01:11:16;19.00;99.90
25188;DHT22;13141;50.414;8.050;2023-07-31T01:13:44;19.00;99.90
25188;DHT22;13141;50.414;8.050;2023-07-31T01:16:10;19.00;99.90
25188;DHT22;13141;50.414;8.050;2023-07-31T01:18:38;19.00;99.90
25188;DHT22;13141;50.414;8.050;2023-07-31T01:21:18;19.00;99.90
25188;DHT22;13141;50.414;8.050;2023-07-31T01:24:08;19.10;99.90
25188;DHT22;13141;50.414;8.050;2023-07-31T01:26:43;19.10;99.90
25188;DHT22;13141;50.414;8.050;2023-07-31T01:29:16;19.20;99.90
25188;DHT22;13141;50.414;8.050;2023-07-31T01:31:44;19.20;99.90
25188;DHT22;13141;50.414;8.050;2023-07-31T01:34:14;19.20;99.90
25188;DHT22;13141;50.414;8.050;2023-07-31T01:36:41;19.30;99.90
25188;DHT22;13141;50.414;8.050;2023-07-31T01:39:07;19.20;99.90
25188;DHT22;13141;50.414;8.050;2023-07-31T01:41:32;19.20;99.90
25188;DHT22;13141;50.414;8.050;2023-07-31T01:44:00;19.30;99.90
25188;DHT22;13141;50.414;8.050;2023-07-31T01:46:25;19.30;99.90
25188;DHT22;13141;50.414;8.050;2023-07-31T01:48:51;19.30;99.90
25188;DHT22;13141;50.414;8.050;2023-07-31T01:51:17;19.30;99.90
25188;DHT22;13141;50.414;8.050;2023-07-31T01:53:42;19.30;99.90
25188;DHT22;13141;50.414;8.050;2023-07-31T01:56:08;19.30;99.90
25188;DHT22;13141;50.414;8.050;2023-07-31T01:58:33;19.30;99.90
25188;DHT22;13141;50.414;8.050;2023-07-31T02:01:02;19.40;99.90
25188;DHT22;13141;50.414;8.050;2023-07-31T02:03:27;19.60;99.90
25188;DHT22;13141;50.414;8.050;2023-07-31T02:05:54;19.40;99.90
25188;DHT22;13141;50.414;8.050;2023-07-31T02:08:19;19.40;99.90
25188;DHT22;13141;50.414;8.050;2023-07-31T02:10:45;19.30;99.90
25188;DHT22;13141;50.414;8.050;2023-07-31T02:13:11;19.50;99.90
25188;DHT22;13141;50.414;8.050;2023-07-31T02:15:37;19.30;99.90
25188;DHT22;13141;50.414;8.050;2023-07-31T02:18:04;19.40;99.90
25188;DHT22;13141;50.414;8.050;2023-07-31T02:20:32;19.30;99.90
25188;DHT22;13141;50.414;8.050;2023-07-31T02:22:58;19.30;99.90
25188;DHT22;13141;50.414;8.050;2023-07-31T02:25:24;19.30;99.90
25188;DHT22;13141;50.414;8.050;2023-07-31T02:27:49;19.30;99.90
25188;DHT22;13141;50.414;8.050;2023-07-31T02:30:15;19.30;99.90
25188;DHT22;13141;50.414;8.050;2023-07-31T02:32:41;19.30;99.90
25188;DHT22;13141;50.414;8.050;2023-07-31T02:35:08;19.20;99.90
25188;DHT22;13141;50.414;8.050;2023-07-31T02:37:34;19.20;99.90
25188;DHT22;13141;50.414;8.050;2023-07-31T02:40:00;19.20;99.90
25188;DHT22;13141;50.414;8.050;2023-07-31T02:42:26;19.20;99.90
25188;DHT22;13141;50.414;8.050;2023-07-31T02:44:52;19.10;99.90
25188;DHT22;13141;50.414;8.050;2023-07-31T02:47:18;19.10;99.90
25188;DHT22;13141;50.414;8.050;2023-07-31T02:49:44;19.10;99.90
25188;DHT22;13141;50.414;8.050;2023-07-31T02:52:11;19.10;99.90
25188;DHT22;13141;50.414;8.050;2023-07-31T02:54:36;19.10;99.90
25188;DHT22;13141;50.414;8.050;2023-07-31T02:57:02;19.10;99.90
25188;DHT22;13141;50.414;8.050;2023-07-31T02:59:28;19.10;99.90
25188;DHT22;13141;50.414;8.050;2023-07-31T03:01:54;19.40;99.90
25188;DHT22;13141;50.414;8.050;2023-07-31T03:04:19;19.30;99.90
25188;DHT22;13141;50.414;8.050;2023-07-31T03:06:45;19.30;99.90
25188;DHT22;13141;50.414;8.050;2023-07-31T03:09:12;19.30;99.90
25188;DHT22;13141;50.414;8.050;2023-07-31T03:11:38;19.30;99.90
25188;DHT22;13141;50.414;8.050;2023-07-31T03:14:04;19.20;99.90
25188;DHT22;13141;50.414;8.050;2023-07-31T03:16:30;19.30;99.90
25188;DHT22;13141;50.414;8.050;2023-07-31T03:18:55;18.70;99.90
25188;DHT22;13141;50.414;8.050;2023-07-31T03:21:21;19.30;99.90
25188;DHT22;13141;50.414;8.050;2023-07-31T03:23:46;19.20;99.90
25188;DHT22;13141;50.414;8.050;2023-07-31T03:26:15;19.10;99.90
25188;DHT22;13141;50.414;8.050;2023-07-31T03:28:40;19.30;99.90
25188;DHT22;13141;50.414;8.050;2023-07-31T03:31:06;18.50;99.90
25188;DHT22;13141;50.414;8.050;2023-07-31T03:33:33;19.00;99.90
25188;DHT22;13141;50.414;8.050;2023-07-31T03:35:59;19.00;99.90
25188;DHT22;13141;50.414;8.050;2023-07-31T03:38:24;19.00;99.90
25188;DHT22;13141;50.414;8.050;2023-07-31T03:40:50;19.00;99.90
25188;DHT22;13141;50.414;8.050;2023-07-31T03:43:17;18.90;99.90
25188;DHT22;13141;50.414;8.050;2023-07-31T03:45:43;19.00;99.90
25188;DHT22;13141;50.414;8.050;2023-07-31T03:48:08;18.90;99.90
25188;DHT22;13141;50.414;8.050;2023-07-31T03:50:34;18.80;99.90
25188;DHT22;13141;50.414;8.050;2023-07-31T03:53:00;19.00;99.90
25188;DHT22;13141;50.414;8.050;2023-07-31T03:55:29;18.80;99.90
25188;DHT22;13141;50.414;8.050;2023-07-31T03:57:55;18.80;99.90
25188;DHT22;13141;50.414;8.050;2023-07-31T04:00:22;18.80;99.90
25188;DHT22;13141;50.414;8.050;2023-07-31T04:02:48;18.80;99.90
25188;DHT22;13141;50.414;8.050;2023-07-31T04:05:14;19.00;99.90
25188;DHT22;13141;50.414;8.050;2023-07-31T04:07:40;18.80;99.90
25188;DHT22;13141;50.414;8.050;2023-07-31T04:10:06;18.80;99.90
25188;DHT22;13141;50.414;8.050;2023-07-31T04:12:33;18.80;99.90
25188;DHT22;13141;50.414;8.050;2023-07-31T04:14:59;18.70;99.90
25188;DHT22;13141;50.414;8.050;2023-07-31T04:17:26;18.70;99.90
25188;DHT22;13141;50.414;8.050;2023-07-31T04:19:52;18.70;99.90
25188;DHT22;13141;50.414;8.050;2023-07-31T04:22:18;18.60;99.90
25188;DHT22;13141;50.414;8.050;2023-07-31T04:24:44;18.60;99.90
25188;DHT22;13141;50.414;8.050;2023-07-31T04:27:10;18.80;99.90
25188;DHT22;13141;50.414;8.050;2023-07-31T04:29:35;18.70;99.90
25188;DHT22;13141;50.414;8.050;2023-07-31T04:32:01;18.70;99.90
25188;DHT22;13141;50.414;8.050;2023-07-31T04:34:29;18.60;99.90
25188;DHT22;13141;50.414;8.050;2023-07-31T04:36:54;18.60;99.90
25188;DHT22;13141;50.414;8.050;2023-07-31T04:39:20;18.70;99.90
25188;DHT22;13141;50.414;8.050;2023-07-31T04:41:46;18.70;99.90
25188;DHT22;13141;50.414;8.050;2023-07-31T04:44:12;18.60;99.90
25188;DHT22;13141;50.414;8.050;2023-07-31T04:46:38;18.60;99.90
25188;DHT22;13141;50.414;8.050;2023-07-31T04:49:03;18.70;99.90
25188;DHT22;13141;50.414;8.050;2023-07-31T04:51:31;18.70;99.90
25188;DHT22;13141;50.414;8.050;2023-07-31T04:53:56;18.80;99.90
25188;DHT22;13141;50.414;8.050;2023-07-31T04:56:24;18.60;99.90
25188;DHT22;13141;50.414;8.050;2023-07-31T04:58:49;18.70;99.90
25188;DHT22;13141;50.414;8.050;2023-07-31T05:01:15;18.60;99.90
25188;DHT22;13141;50.414;8.050;2023-07-31T05:03:41;18.70;99.90
25188;DHT22;13141;50.414;8.050;2023-07-31T05:06:06;18.80;99.90
25188;DHT22;13141;50.414;8.050;2023-07-31T05:08:34;18.80;99.90
25188;DHT22;13141;50.414;8.050;2023-07-31T05:10:59;18.70;99.90
25188;DHT22;13141;50.414;8.050;2023-07-31T05:13:25;18.70;99.90
25188;DHT22;13141;50.414;8.050;2023-07-31T05:15:51;18.70;99.90
25188;DHT22;13141;50.414;8.050;2023-07-31T05:18:16;18.70;99.90
25188;DHT22;13141;50.414;8.050;2023-07-31T05:20:42;18.70;99.90
25188;DHT22;13141;50.414;8.050;2023-07-31T05:23:08;18.80;99.90
25188;DHT22;13141;50.414;8.050;2023-07-31T05:25:35;18.80;99.90
25188;DHT22;13141;50.414;8.050;2023-07-31T05:28:01;18.80;99.90
25188;DHT22;13141;50.414;8.050;2023-07-31T05:30:27;18.80;99.90
25188;DHT22;13141;50.414;8.050;2023-07-31T05:32:56;18.80;99.90
25188;DHT22;13141;50.414;8.050;2023-07-31T05:35:22;18.80;99.90
25188;DHT22;13141;50.414;8.050;2023-07-31T05:37:49;18.80;99.90
25188;DHT22;13141;50.414;8.050;2023-07-31T05:40:15;18.90;99.90
25188;DHT22;13141;50.414;8.050;2023-07-31T05:42:42;18.80;99.90
25188;DHT22;13141;50.414;8.050;2023-07-31T05:45:09;18.80;99.90
25188;DHT22;13141;50.414;8.050;2023-07-31T05:47:36;18.90;99.90
25188;DHT22;13141;50.414;8.050;2023-07-31T05:50:02;19.00;99.90
25188;DHT22;13141;50.414;8.050;2023-07-31T05:52:29;19.10;99.90
25188;DHT22;13141;50.414;8.050;2023-07-31T05:54:55;19.30;99.90
25188;DHT22;13141;50.414;8.050;2023-07-31T05:57:21;19.00;99.90
25188;DHT22;13141;50.414;8.050;2023-07-31T05:59:49;19.10;99.90
25188;DHT22;13141;50.414;8.050;2023-07-31T06:02:15;19.10;99.90
25188;DHT22;13141;50.414;8.050;2023-07-31T06:04:41;18.80;99.90
25188;DHT22;13141;50.414;8.050;2023-07-31T06:07:07;19.10;99.90
25188;DHT22;13141;50.414;8.050;2023-07-31T06:09:33;19.10;99.90
25188;DHT22;13141;50.414;8.050;2023-07-31T06:11:58;19.00;99.90
25188;DHT22;13141;50.414;8.050;2023-07-31T06:14:26;19.00;99.90
25188;DHT22;13141;50.414;8.050;2023-07-31T06:16:53;19.00;99.90
25188;DHT22;13141;50.414;8.050;2023-07-31T06:19:19;19.00;99.90
25188;DHT22;13141;50.414;8.050;2023-07-31T06:21:45;19.20;99.90
25188;DHT22;13141;50.414;8.050;2023-07-31T06:24:13;19.30;99.90
25188;DHT22;13141;50.414;8.050;2023-07-31T06:26:39;18.70;99.90
25188;DHT22;13141;50.414;8.050;2023-07-31T06:29:04;19.10;99.90
25188;DHT22;13141;50.414;8.050;2023-07-31T06:31:30;19.10;99.90
25188;DHT22;13141;50.414;8.050;2023-07-31T06:34:01;19.20;99.90
25188;DHT22;13141;50.414;8.050;2023-07-31T06:36:26;19.30;99.90
25188;DHT22;13141;50.414;8.050;2023-07-31T06:38:53;19.20;99.90
25188;DHT22;13141;50.414;8.050;2023-07-31T06:41:21;19.30;99.90
25188;DHT22;13141;50.414;8.050;2023-07-31T06:43:48;19.30;99.90
25188;DHT22;13141;50.414;8.050;2023-07-31T06:46:14;19.40;99.90
25188;DHT22;13141;50.414;8.050;2023-07-31T06:48:41;19.70;99.90
25188;DHT22;13141;50.414;8.050;2023-07-31T06:51:08;19.50;99.90
25188;DHT22;13141;50.414;8.050;2023-07-31T06:53:35;19.70;99.90
25188;DHT22;13141;50.414;8.050;2023-07-31T06:56:01;19.70;99.90
25188;DHT22;13141;50.414;8.050;2023-07-31T06:58:26;19.80;99.90
25188;DHT22;13141;50.414;8.050;2023-07-31T07:00:52;20.10;99.90
25188;DHT22;13141;50.414;8.050;2023-07-31T07:03:18;20.10;99.90
25188;DHT22;13141;50.414;8.050;2023-07-31T07:05:44;20.10;99.90
25188;DHT22;13141;50.414;8.050;2023-07-31T07:08:13;20.10;99.90
25188;DHT22;13141;50.414;8.050;2023-07-31T07:10:40;20.00;99.90
25188;DHT22;13141;50.414;8.050;2023-07-31T07:13:06;19.90;99.90
25188;DHT22;13141;50.414;8.050;2023-07-31T07:15:31;19.90;99.90
25188;DHT22;13141;50.414;8.050;2023-07-31T07:17:57;19.80;99.90
25188;DHT22;13141;50.414;8.050;2023-07-31T07:20:23;19.80;99.90
25188;DHT22;13141;50.414;8.050;2023-07-31T07:22:48;19.80;99.90
25188;DHT22;13141;50.414;8.050;2023-07-31T07:25:16;19.70;99.90
25188;DHT22;13141;50.414;8.050;2023-07-31T07:27:42;19.70;99.90
25188;DHT22;13141;50.414;8.050;2023-07-31T07:30:08;19.70;99.90
25188;DHT22;13141;50.414;8.050;2023-07-31T07:32:34;19.70;99.90
25188;DHT22;13141;50.414;8.050;2023-07-31T07:34:59;19.80;99.90
25188;DHT22;13141;50.414;8.050;2023-07-31T07:37:26;19.80;99.90
25188;DHT22;13141;50.414;8.050;2023-07-31T07:39:51;19.90;99.90
25188;DHT22;13141;50.414;8.050;2023-07-31T07:42:19;20.00;99.90
25188;DHT22;13141;50.414;8.050;2023-07-31T07:44:45;20.00;99.90
25188;DHT22;13141;50.414;8.050;2023-07-31T07:47:10;20.00;99.90
25188;DHT22;13141;50.414;8.050;2023-07-31T07:49:36;19.90;99.90
25188;DHT22;13141;50.414;8.050;2023-07-31T07:52:03;19.90;99.90
25188;DHT22;13141;50.414;8.050;2023-07-31T07:54:29;20.00;99.90
25188;DHT22;13141;50.414;8.050;2023-07-31T07:56:55;20.10;99.90
25188;DHT22;13141;50.414;8.050;2023-07-31T07:59:22;20.30;99.90
25188;DHT22;13141;50.414;8.050;2023-07-31T08:01:48;20.40;99.90
25188;DHT22;13141;50.414;8.050;2023-07-31T08:04:14;20.50;99.90
25188;DHT22;13141;50.414;8.050;2023-07-31T08:06:40;20.70;99.90
25188;DHT22;13141;50.414;8.050;2023-07-31T08:09:07;20.70;99.90
25188;DHT22;13141;50.414;8.050;2023-07-31T08:11:32;20.80;99.90
25188;DHT22;13141;50.414;8.050;2023-07-31T08:13:58;20.70;99.90
25188;DHT22;13141;50.414;8.050;2023-07-31T08:16:25;20.70;99.90
25188;DHT22;13141;50.414;8.050;2023-07-31T08:18:51;20.90;99.90
25188;DHT22;13141;50.414;8.050;2023-07-31T08:21:17;21.10;99.90
25188;DHT22;13141;50.414;8.050;2023-07-31T08:23:43;21.20;99.90
25188;DHT22;13141;50.414;8.050;2023-07-31T08:26:14;21.40;99.90
25188;DHT22;13141;50.414;8.050;2023-07-31T08:28:42;21.10;99.90
25188;DHT22;13141;50.414;8.050;2023-07-31T08:31:07;21.10;99.90
25188;DHT22;13141;50.414;8.050;2023-07-31T08:33:35;21.00;99.90
25188;DHT22;13141;50.414;8.050;2023-07-31T08:36:00;20.80;99.90
25188;DHT22;13141;50.414;8.050;2023-07-31T08:38:26;20.90;99.90
25188;DHT22;13141;50.414;8.050;2023-07-31T08:40:52;20.90;99.90
25188;DHT22;13141;50.414;8.050;2023-07-31T08:43:20;20.70;99.90
25188;DHT22;13141;50.414;8.050;2023-07-31T08:45:47;20.50;99.90
25188;DHT22;13141;50.414;8.050;2023-07-31T08:48:15;20.40;99.90
25188;DHT22;13141;50.414;8.050;2023-07-31T08:50:42;20.30;99.90
25188;DHT22;13141;50.414;8.050;2023-07-31T08:53:08;20.30;99.90
25188;DHT22;13141;50.414;8.050;2023-07-31T08:55:34;20.20;99.90
25188;DHT22;13141;50.414;8.050;2023-07-31T08:58:03;20.30;99.90
25188;DHT22;13141;50.414;8.050;2023-07-31T09:00:31;20.00;99.90
25188;DHT22;13141;50.414;8.050;2023-07-31T09:02:59;20.10;99.90
25188;DHT22;13141;50.414;8.050;2023-07-31T09:05:26;19.90;99.90
25188;DHT22;13141;50.414;8.050;2023-07-31T09:07:56;20.00;99.90
25188;DHT22;13141;50.414;8.050;2023-07-31T09:10:22;19.90;99.90
25188;DHT22;13141;50.414;8.050;2023-07-31T09:12:49;19.80;99.90
25188;DHT22;13141;50.414;8.050;2023-07-31T09:15:16;19.80;99.90
25188;DHT22;13141;50.414;8.050;2023-07-31T09:17:43;19.60;99.90
25188;DHT22;13141;50.414;8.050;2023-07-31T09:20:15;19.60;99.90
25188;DHT22;13141;50.414;8.050;2023-07-31T09:22:43;19.60;99.90
25188;DHT22;13141;50.414;8.050;2023-07-31T09:25:18;19.70;99.90
25188;DHT22;13141;50.414;8.050;2023-07-31T09:27:49;19.90;99.90
25188;DHT22;13141;50.414;8.050;2023-07-31T09:30:15;19.70;99.90
25188;DHT22;13141;50.414;8.050;2023-07-31T09:32:42;19.70;99.90
25188;DHT22;13141;50.414;8.050;2023-07-31T09:35:19;19.70;99.90
25188;DHT22;13141;50.414;8.050;2023-07-31T09:37:49;19.70;99.90
25188;DHT22;13141;50.414;8.050;2023-07-31T09:40:25;19.70;99.90
25188;DHT22;13141;50.414;8.050;2023-07-31T09:42:51;19.80;99.90
25188;DHT22;13141;50.414;8.050;2023-07-31T09:45:20;19.90;99.90
25188;DHT22;13141;50.414;8.050;2023-07-31T09:47:46;20.00;99.90
25188;DHT22;13141;50.414;8.050;2023-07-31T09:50:14;19.90;99.90
25188;DHT22;13141;50.414;8.050;2023-07-31T09:52:40;19.70;99.90
25188;DHT22;13141;50.414;8.050;2023-07-31T09:55:06;19.90;99.90
25188;DHT22;13141;50.414;8.050;2023-07-31T09:57:34;19.90;99.90
25188;DHT22;13141;50.414;8.050;2023-07-31T10:00:01;20.00;99.90
25188;DHT22;13141;50.414;8.050;2023-07-31T10:02:28;20.00;99.90
25188;DHT22;13141;50.414;8.050;2023-07-31T10:04:57;19.60;99.90
25188;DHT22;13141;50.414;8.050;2023-07-31T10:07:29;20.30;99.90
25188;DHT22;13141;50.414;8.050;2023-07-31T10:09:56;20.30;99.90
25188;DHT22;13141;50.414;8.050;2023-07-31T10:12:26;20.40;99.90
25188;DHT22;13141;50.414;8.050;2023-07-31T10:14:54;20.50;99.90
25188;DHT22;13141;50.414;8.050;2023-07-31T10:17:21;20.60;99.90
25188;DHT22;13141;50.414;8.050;2023-07-31T10:19:49;20.70;99.90
25188;DHT22;13141;50.414;8.050;2023-07-31T10:22:16;20.70;99.90
25188;DHT22;13141;50.414;8.050;2023-07-31T10:24:43;20.70;99.90
25188;DHT22;13141;50.414;8.050;2023-07-31T10:27:09;20.80;99.90
25188;DHT22;13141;50.414;8.050;2023-07-31T10:29:35;21.00;99.90
25188;DHT22;13141;50.414;8.050;2023-07-31T10:32:05;20.80;99.90
25188;DHT22;13141;50.414;8.050;2023-07-31T10:34:31;20.70;99.90
25188;DHT22;13141;50.414;8.050;2023-07-31T10:37:20;20.70;99.90
25188;DHT22;13141;50.414;8.050;2023-07-31T10:39:55;20.70;99.90
25188;DHT22;13141;50.414;8.050;2023-07-31T10:42:27;20.60;99.90
25188;DHT22;13141;50.414;8.050;2023-07-31T10:44:57;20.70;99.90
25188;DHT22;13141;50.414;8.050;2023-07-31T10:47:24;21.00;99.90
25188;DHT22;13141;50.414;8.050;2023-07-31T10:49:50;20.80;99.90
25188;DHT22;13141;50.414;8.050;2023-07-31T10:52:20;20.80;99.90
25188;DHT22;13141;50.414;8.050;2023-07-31T10:54:46;20.80;99.90
25188;DHT22;13141;50.414;8.050;2023-07-31T10:57:30;20.60;99.90
25188;DHT22;13141;50.414;8.050;2023-07-31T11:00:18;21.00;99.90
25188;DHT22;13141;50.414;8.050;2023-07-31T11:02:56;20.90;99.90
25188;DHT22;13141;50.414;8.050;2023-07-31T11:05:41;20.80;99.90
25188;DHT22;13141;50.414;8.050;2023-07-31T11:08:11;21.00;99.90
25188;DHT22;13141;50.414;8.050;2023-07-31T11:10:36;20.90;99.90
25188;DHT22;13141;50.414;8.050;2023-07-31T11:13:04;20.90;99.90
25188;DHT22;13141;50.414;8.050;2023-07-31T11:15:33;20.90;99.90
25188;DHT22;13141;50.414;8.050;2023-07-31T11:18:01;20.90;99.90
25188;DHT22;13141;50.414;8.050;2023-07-31T11:20:29;21.10;99.90
25188;DHT22;13141;50.414;8.050;2023-07-31T11:22:57;21.10;99.90
25188;DHT22;13141;50.414;8.050;2023-07-31T11:25:23;21.20;99.90
25188;DHT22;13141;50.414;8.050;2023-07-31T11:27:49;21.00;99.90
25188;DHT22;13141;50.414;8.050;2023-07-31T11:30:15;21.40;99.90
25188;DHT22;13141;50.414;8.050;2023-07-31T11:32:45;21.40;99.90
25188;DHT22;13141;50.414;8.050;2023-07-31T11:35:13;21.30;99.90
25188;DHT22;13141;50.414;8.050;2023-07-31T11:37:39;21.40;99.90
25188;DHT22;13141;50.414;8.050;2023-07-31T11:40:06;21.30;99.90
25188;DHT22;13141;50.414;8.050;2023-07-31T11:42:32;21.20;99.90
25188;DHT22;13141;50.414;8.050;2023-07-31T11:45:02;20.80;99.90
25188;DHT22;13141;50.414;8.050;2023-07-31T11:47:28;21.30;99.90
25188;DHT22;13141;50.414;8.050;2023-07-31T11:49:55;21.30;99.90
25188;DHT22;13141;50.414;8.050;2023-07-31T11:52:23;21.40;99.90
25188;DHT22;13141;50.414;8.050;2023-07-31T11:54:49;21.60;99.90
25188;DHT22;13141;50.414;8.050;2023-07-31T11:57:15;21.80;99.90
25188;DHT22;13141;50.414;8.050;2023-07-31T11:59:41;21.70;99.90
25188;DHT22;13141;50.414;8.050;2023-07-31T12:02:08;21.80;99.90
25188;DHT22;13141;50.414;8.050;2023-07-31T12:04:36;21.90;99.90
25188;DHT22;13141;50.414;8.050;2023-07-31T12:07:02;21.90;99.90
25188;DHT22;13141;50.414;8.050;2023-07-31T12:09:29;22.10;99.90
25188;DHT22;13141;50.414;8.050;2023-07-31T12:11:55;22.40;99.90
25188;DHT22;13141;50.414;8.050;2023-07-31T12:14:21;22.60;99.90
25188;DHT22;13141;50.414;8.050;2023-07-31T12:16:54;22.90;99.90
25188;DHT22;13141;50.414;8.050;2023-07-31T12:19:20;23.30;99.90
25188;DHT22;13141;50.414;8.050;2023-07-31T12:21:46;23.10;99.90
25188;DHT22;13141;50.414;8.050;2023-07-31T12:24:12;23.00;99.90
25188;DHT22;13141;50.414;8.050;2023-07-31T12:26:39;23.20;99.90
25188;DHT22;13141;50.414;8.050;2023-07-31T12:29:07;23.20;99.90
25188;DHT22;13141;50.414;8.050;2023-07-31T12:31:34;23.30;99.90
25188;DHT22;13141;50.414;8.050;2023-07-31T12:34:01;23.50;99.90
25188;DHT22;13141;50.414;8.050;2023-07-31T12:36:27;23.60;99.90
25188;DHT22;13141;50.414;8.050;2023-07-31T12:38:53;23.60;99.90
25188;DHT22;13141;50.414;8.050;2023-07-31T12:41:18;23.80;99.90
25188;DHT22;13141;50.414;8.050;2023-07-31T12:43:48;23.60;99.90
25188;DHT22;13141;50.414;8.050;2023-07-31T12:46:14;23.60;99.90
25188;DHT22;13141;50.414;8.050;2023-07-31T12:48:41;23.60;99.90
25188;DHT22;13141;50.414;8.050;2023-07-31T12:51:07;23.50;99.90
25188;DHT22;13141;50.414;8.050;2023-07-31T12:53:33;23.80;99.90
25188;DHT22;13141;50.414;8.050;2023-07-31T12:55:59;23.50;99.90
25188;DHT22;13141;50.414;8.050;2023-07-31T12:58:24;23.60;99.90
25188;DHT22;13141;50.414;8.050;2023-07-31T13:00:52;23.60;99.90
25188;DHT22;13141;50.414;8.050;2023-07-31T13:03:18;23.40;99.90
25188;DHT22;13141;50.414;8.050;2023-07-31T13:05:43;23.90;99.90
25188;DHT22;13141;50.414;8.050;2023-07-31T13:08:09;23.80;99.90
25188;DHT22;13141;50.414;8.050;2023-07-31T13:10:36;24.10;99.90
25188;DHT22;13141;50.414;8.050;2023-07-31T13:13:02;24.00;99.90
25188;DHT22;13141;50.414;8.050;2023-07-31T13:15:27;24.00;99.90
25188;DHT22;13141;50.414;8.050;2023-07-31T13:17:55;24.00;99.90
25188;DHT22;13141;50.414;8.050;2023-07-31T13:20:20;24.10;99.90
25188;DHT22;13141;50.414;8.050;2023-07-31T13:22:46;24.00;99.90
25188;DHT22;13141;50.414;8.050;2023-07-31T13:25:12;24.10;99.90
25188;DHT22;13141;50.414;8.050;2023-07-31T13:27:37;24.00;99.90
25188;DHT22;13141;50.414;8.050;2023-07-31T13:30:04;23.80;99.90
25188;DHT22;13141;50.414;8.050;2023-07-31T13:32:30;23.70;99.90
25188;DHT22;13141;50.414;8.050;2023-07-31T13:34:57;23.60;99.90
25188;DHT22;13141;50.414;8.050;2023-07-31T13:37:23;23.60;99.90
25188;DHT22;13141;50.414;8.050;2023-07-31T13:39:48;23.60;99.90
25188;DHT22;13141;50.414;8.050;2023-07-31T13:42:14;23.70;99.90
25188;DHT22;13141;50.414;8.050;2023-07-31T13:44:40;23.60;99.90
25188;DHT22;13141;50.414;8.050;2023-07-31T13:47:06;23.50;99.90
25188;DHT22;13141;50.414;8.050;2023-07-31T13:49:32;23.70;99.90
25188;DHT22;13141;50.414;8.050;2023-07-31T13:52:00;23.70;99.90
25188;DHT22;13141;50.414;8.050;2023-07-31T13:54:25;23.50;99.90
25188;DHT22;13141;50.414;8.050;2023-07-31T13:56:53;23.30;99.90
25188;DHT22;13141;50.414;8.050;2023-07-31T13:59:18;23.30;99.90
25188;DHT22;13141;50.414;8.050;2023-07-31T14:01:47;23.10;99.90
25188;DHT22;13141;50.414;8.050;2023-07-31T14:04:12;23.00;99.90
25188;DHT22;13141;50.414;8.050;2023-07-31T14:06:38;23.00;99.90
25188;DHT22;13141;50.414;8.050;2023-07-31T14:09:06;23.00;99.90
25188;DHT22;13141;50.414;8.050;2023-07-31T14:11:31;22.90;99.90
25188;DHT22;13141;50.414;8.050;2023-07-31T14:13:57;22.80;99.90
25188;DHT22;13141;50.414;8.050;2023-07-31T14:16:24;22.80;99.90
25188;DHT22;13141;50.414;8.050;2023-07-31T14:18:49;22.80;99.90
25188;DHT22;13141;50.414;8.050;2023-07-31T14:21:15;22.70;99.90
25188;DHT22;13141;50.414;8.050;2023-07-31T14:23:41;22.90;99.90
25188;DHT22;13141;50.414;8.050;2023-07-31T14:26:10;23.20;99.90
25188;DHT22;13141;50.414;8.050;2023-07-31T14:28:35;23.10;99.90
25188;DHT22;13141;50.414;8.050;2023-07-31T14:31:01;23.20;99.90
25188;DHT22;13141;50.414;8.050;2023-07-31T14:33:28;23.10;99.90
25188;DHT22;13141;50.414;8.050;2023-07-31T14:35:54;23.10;99.90
25188;DHT22;13141;50.414;8.050;2023-07-31T14:38:19;23.50;99.90
25188;DHT22;13141;50.414;8.050;2023-07-31T14:40:45;23.80;99.90
25188;DHT22;13141;50.414;8.050;2023-07-31T14:43:12;24.00;99.90
25188;DHT22;13141;50.414;8.050;2023-07-31T14:45:38;24.30;99.90
25188;DHT22;13141;50.414;8.050;2023-07-31T14:48:04;24.80;99.90
25188;DHT22;13141;50.414;8.050;2023-07-31T14:50:29;25.10;99.90
25188;DHT22;13141;50.414;8.050;2023-07-31T14:52:55;25.60;99.90
25188;DHT22;13141;50.414;8.050;2023-07-31T14:55:21;25.60;99.90
25188;DHT22;13141;50.414;8.050;2023-07-31T14:57:47;25.70;99.90
25188;DHT22;13141;50.414;8.050;2023-07-31T15:00:15;25.80;99.90
25188;DHT22;13141;50.414;8.050;2023-07-31T15:02:41;25.80;99.90
25188;DHT22;13141;50.414;8.050;2023-07-31T15:05:08;25.50;99.90
25188;DHT22;13141;50.414;8.050;2023-07-31T15:07:36;25.20;99.90
25188;DHT22;13141;50.414;8.050;2023-07-31T15:10:02;24.70;99.90
25188;DHT22;13141;50.414;8.050;2023-07-31T15:12:28;24.40;99.90
25188;DHT22;13141;50.414;8.050;2023-07-31T15:14:55;24.20;99.90
25188;DHT22;13141;50.414;8.050;2023-07-31T15:17:23;23.80;99.90
25188;DHT22;13141;50.414;8.050;2023-07-31T15:19:48;23.60;99.90
25188;DHT22;13141;50.414;8.050;2023-07-31T15:22:14;23.80;99.90
25188;DHT22;13141;50.414;8.050;2023-07-31T15:24:40;23.50;99.90
25188;DHT22;13141;50.414;8.050;2023-07-31T15:27:06;23.50;99.90